Time;durP1;ratioP1;P1;durP2;ratioP2;P2;SDS_P1;SDS_P2;PMS_P1;PMS_P2;Temp;Humidity;BMP_temperature;BMP_pressure;BME280_temperature;BME280_humidity;BME280_pressure;Samples;Min_cycle;Max_cycle;Signal;HPM_P1;HPM_P2
2022/02/18 00:00:27;;;;;;;18.17;3.05;;;;;;;;;;4940819;28;20058;-67
2022/02/18 00:02:56;;;;;;;17.30;3.47;;;;;;;;;;4940751;28;20055;-66
2022/02/18 00:05:22;;;;;;;17.73;3.33;;;;;;;;;;4942467;28;20489;-67
2022/02/18 00:07:49;;;;;;;17.17;3.97;;;;;;;;;;4972718;28;20051;-68
2022/02/18 00:10:15;;;;;;;21.48;3.33;;;;;;;;;;4971259;28;20105;-66
2022/02/18 00:12:42;;;;;;;16.38;4.88;;;;;;;;;;4971267;28;20043;-66
2022/02/18 00:15:09;;;;;;;19.98;4.35;;;;;;;;;;4972604;28;20055;-66
2022/02/18 00:17:38;;;;;;;22.88;3.70;;;;;;;;;;4955594;28;20057;-66
2022/02/18 00:20:07;;;;;;;16.98;4.30;;;;;;;;;;4971629;28;20149;-66
2022/02/18 00:22:34;;;;;;;14.10;3.20;;;;;;;;;;4972550;28;20047;-67
2022/02/18 00:25:01;;;;;;;16.42;2.95;;;;;;;;;;4955382;28;20460;-67
2022/02/18 00:27:28;;;;;;;22.77;3.42;;;;;;;;;;4955371;28;20117;-66
2022/02/18 00:29:55;;;;;;;23.35;4.38;;;;;;;;;;4972581;28;20098;-66
2022/02/18 00:32:22;;;;;;;18.50;4.18;;;;;;;;;;4972506;28;20055;-67
2022/02/18 00:34:48;;;;;;;13.93;3.33;;;;;;;;;;4972295;28;20490;-66
2022/02/18 00:37:16;;;;;;;14.93;3.05;;;;;;;;;;4955327;28;20117;-66
2022/02/18 00:39:42;;;;;;;21.35;3.20;;;;;;;;;;4939358;28;20106;-66
2022/02/18 00:42:09;;;;;;;18.20;2.53;;;;;;;;;;4972277;28;20097;-66
2022/02/18 00:44:37;;;;;;;13.63;2.70;;;;;;;;;;4955356;28;20051;-66
2022/02/18 00:47:05;;;;;;;21.17;2.95;;;;;;;;;;4955213;28;20047;-67
2022/02/18 00:49:31;;;;;;;13.65;3.10;;;;;;;;;;4972159;28;20058;-66
2022/02/18 00:51:58;;;;;;;21.13;3.15;;;;;;;;;;4923554;28;20493;-66
2022/02/18 00:54:25;;;;;;;17.42;2.97;;;;;;;;;;4955052;28;20047;-66
2022/02/18 00:56:51;;;;;;;17.75;3.10;;;;;;;;;;4972435;28;20047;-66
2022/02/18 00:59:18;;;;;;;15.35;2.83;;;;;;;;;;4954837;28;20055;-67
2022/02/18 01:01:44;;;;;;;16.63;3.65;;;;;;;;;;4973710;28;20047;-66
2022/02/18 01:04:11;;;;;;;16.77;3.17;;;;;;;;;;4975678;28;20110;-66
2022/02/18 01:06:39;;;;;;;19.95;2.97;;;;;;;;;;4975623;28;20074;-66
2022/02/18 01:09:05;;;;;;;16.77;3.05;;;;;;;;;;4958337;28;20085;-66
2022/02/18 01:11:32;;;;;;;20.80;3.17;;;;;;;;;;4958551;28;20121;-67
2022/02/18 01:13:59;;;;;;;17.63;3.20;;;;;;;;;;4975168;28;20109;-68
2022/02/18 01:16:27;;;;;;;17.42;3.17;;;;;;;;;;4958288;28;20516;-67
2022/02/18 01:18:53;;;;;;;15.98;3.10;;;;;;;;;;4975562;28;20561;-67
2022/02/18 01:21:20;;;;;;;16.40;2.80;;;;;;;;;;4943660;28;20101;-67
2022/02/18 01:23:47;;;;;;;17.33;2.65;;;;;;;;;;4942383;28;20047;-66
2022/02/18 01:26:14;;;;;;;15.57;3.75;;;;;;;;;;4974246;28;20054;-66
2022/02/18 01:28:40;;;;;;;18.15;3.13;;;;;;;;;;4975186;28;20054;-66
2022/02/18 01:31:07;;;;;;;14.45;2.55;;;;;;;;;;4958094;28;20117;-68
2022/02/18 01:33:34;;;;;;;17.63;3.00;;;;;;;;;;4974924;28;20643;-66
2022/02/18 01:36:01;;;;;;;17.92;3.40;;;;;;;;;;4958088;28;20426;-66
2022/02/18 01:38:27;;;;;;;17.05;2.95;;;;;;;;;;4957813;28;20097;-66
2022/02/18 01:40:54;;;;;;;16.27;2.90;;;;;;;;;;4957850;28;20568;-66
2022/02/18 01:43:20;;;;;;;15.85;2.95;;;;;;;;;;4974656;28;20047;-67
2022/02/18 01:45:47;;;;;;;16.15;2.88;;;;;;;;;;4974972;28;20047;-67
2022/02/18 01:48:14;;;;;;;19.02;3.70;;;;;;;;;;4957882;28;20050;-66
2022/02/18 01:50:42;;;;;;;22.25;2.67;;;;;;;;;;4941906;28;20058;-66
2022/02/18 01:53:11;;;;;;;10.13;2.15;;;;;;;;;;4957739;28;20399;-66
2022/02/18 01:55:38;;;;;;;11.75;3.63;;;;;;;;;;4942409;28;20568;-66
2022/02/18 01:58:05;;;;;;;17.45;3.05;;;;;;;;;;4941753;28;20055;-66
2022/02/18 02:00:33;;;;;;;18.45;3.85;;;;;;;;;;4973213;28;20101;-66
2022/02/18 02:03:01;;;;;;;18.63;3.55;;;;;;;;;;4957721;28;20047;-66
2022/02/18 02:05:28;;;;;;;13.73;3.05;;;;;;;;;;4957670;28;20125;-67
2022/02/18 02:07:55;;;;;;;12.13;2.13;;;;;;;;;;4973465;28;20106;-66
2022/02/18 02:10:22;;;;;;;13.05;2.55;;;;;;;;;;4941447;28;20055;-68
2022/02/18 02:12:50;;;;;;;15.50;2.65;;;;;;;;;;4973580;28;20069;-69
2022/02/18 02:15:20;;;;;;;17.15;2.75;;;;;;;;;;4974383;28;20082;-66
2022/02/18 02:17:47;;;;;;;12.65;2.80;;;;;;;;;;4974620;28;20085;-68
2022/02/18 02:20:14;;;;;;;17.73;3.20;;;;;;;;;;4941356;28;20415;-66
2022/02/18 02:22:41;;;;;;;17.48;3.33;;;;;;;;;;4973853;28;20055;-67
2022/02/18 02:25:07;;;;;;;15.02;2.80;;;;;;;;;;4974213;28;20113;-66
2022/02/18 02:27:35;;;;;;;18.40;2.63;;;;;;;;;;4957072;28;20057;-67
2022/02/18 02:30:03;;;;;;;14.85;3.55;;;;;;;;;;4973066;28;20528;-66
2022/02/18 02:32:30;;;;;;;16.55;3.83;;;;;;;;;;4940992;28;20076;-66
2022/02/18 02:34:59;;;;;;;17.70;3.10;;;;;;;;;;4957143;28;20462;-68
2022/02/18 02:37:26;;;;;;;13.90;3.80;;;;;;;;;;4973690;28;20399;-66
2022/02/18 02:39:52;;;;;;;17.25;3.65;;;;;;;;;;4974053;28;20105;-68
2022/02/18 02:42:19;;;;;;;20.77;3.78;;;;;;;;;;4973820;28;20544;-67
2022/02/18 02:44:46;;;;;;;16.65;4.78;;;;;;;;;;4956920;28;20050;-66
2022/02/18 02:47:13;;;;;;;13.57;2.45;;;;;;;;;;4956605;28;20113;-68
2022/02/18 02:49:40;;;;;;;13.13;2.35;;;;;;;;;;4973858;28;20054;-66
2022/02/18 02:52:06;;;;;;;23.65;2.95;;;;;;;;;;4956562;28;20058;-66
2022/02/18 02:54:33;;;;;;;10.00;3.50;;;;;;;;;;4940734;28;20046;-67
2022/02/18 02:56:59;;;;;;;18.30;2.50;;;;;;;;;;4956609;28;20183;-66
2022/02/18 02:59:26;;;;;;;19.27;3.15;;;;;;;;;;4973427;28;20097;-66
2022/02/18 03:01:53;;;;;;;15.18;2.97;;;;;;;;;;4956482;28;20514;-66
2022/02/18 03:04:19;;;;;;;19.08;3.03;;;;;;;;;;4955883;28;20110;-66
2022/02/18 03:06:46;;;;;;;14.00;2.25;;;;;;;;;;4972181;28;20047;-66
2022/02/18 03:09:32;;;;;;;14.50;3.28;;;;;;;;;;4974521;28;20050;-67
2022/02/18 03:11:58;;;;;;;15.55;3.05;;;;;;;;;;4956608;28;20055;-66
2022/02/18 03:14:25;;;;;;;19.15;3.40;;;;;;;;;;4973844;28;20051;-66
2022/02/18 03:16:52;;;;;;;16.83;2.55;;;;;;;;;;4956506;28;20050;-67
2022/02/18 03:19:18;;;;;;;21.98;3.72;;;;;;;;;;4956220;28;20117;-66
2022/02/18 03:21:45;;;;;;;15.32;3.13;;;;;;;;;;4956299;28;20078;-66
2022/02/18 03:24:12;;;;;;;17.95;4.35;;;;;;;;;;4971923;28;20050;-67
2022/02/18 03:26:38;;;;;;;16.30;3.33;;;;;;;;;;4971835;28;20050;-66
2022/02/18 03:29:05;;;;;;;21.75;3.22;;;;;;;;;;4973072;28;20101;-66
2022/02/18 03:31:31;;;;;;;14.15;2.50;;;;;;;;;;4973198;28;20054;-67
2022/02/18 03:33:58;;;;;;;17.85;3.58;;;;;;;;;;4971815;28;20461;-67
2022/02/18 03:36:24;;;;;;;14.45;3.15;;;;;;;;;;4972900;28;20046;-66
2022/02/18 03:38:54;;;;;;;15.52;2.75;;;;;;;;;;4955944;28;20054;-66
2022/02/18 03:41:21;;;;;;;13.23;2.92;;;;;;;;;;4973170;28;20109;-67
2022/02/18 03:43:48;;;;;;;13.35;2.85;;;;;;;;;;4940006;28;20046;-66
2022/02/18 03:46:15;;;;;;;12.02;2.58;;;;;;;;;;4956042;28;20129;-67
2022/02/18 03:48:41;;;;;;;9.25;2.67;;;;;;;;;;4955723;28;20106;-66
2022/02/18 03:51:08;;;;;;;15.30;3.58;;;;;;;;;;4973102;28;20098;-66
2022/02/18 03:53:34;;;;;;;18.48;2.78;;;;;;;;;;4955604;28;20494;-67
2022/02/18 03:56:01;;;;;;;10.75;2.83;;;;;;;;;;4973106;28;20117;-67
2022/02/18 03:58:28;;;;;;;13.05;2.70;;;;;;;;;;4972303;28;20063;-66
2022/02/18 04:00:54;;;;;;;12.95;2.42;;;;;;;;;;4958595;23;20048;-69
2022/02/18 04:03:21;;;;;;;12.43;2.58;;;;;;;;;;4934111;29;20058;-70
2022/02/18 04:05:48;;;;;;;15.40;2.10;;;;;;;;;;4934536;29;20051;-70
2022/02/18 04:08:15;;;;;;;10.88;2.17;;;;;;;;;;4934589;29;20048;-69
2022/02/18 04:10:41;;;;;;;10.65;2.42;;;;;;;;;;4934146;29;20059;-70
2022/02/18 04:13:08;;;;;;;17.48;3.05;;;;;;;;;;4934277;29;20094;-70
2022/02/18 04:15:34;;;;;;;15.32;3.55;;;;;;;;;;4934255;29;20181;-71
2022/02/18 04:18:01;;;;;;;14.77;2.97;;;;;;;;;;4934463;29;20111;-70
2022/02/18 04:20:28;;;;;;;16.02;3.13;;;;;;;;;;4934327;29;20079;-70
2022/02/18 04:23:15;;;;;;;14.20;2.05;;;;;;;;;;4934282;29;20142;-70
2022/02/18 04:25:41;;;;;;;15.50;2.83;;;;;;;;;;4934121;29;20106;-69
2022/02/18 04:28:08;;;;;;;9.88;2.80;;;;;;;;;;4934325;29;20060;-70
2022/02/18 04:30:35;;;;;;;15.30;3.88;;;;;;;;;;4934026;29;20123;-70
2022/02/18 04:33:02;;;;;;;20.30;2.45;;;;;;;;;;4933968;29;20083;-68
2022/02/18 04:35:28;;;;;;;14.60;2.75;;;;;;;;;;4934123;29;20107;-70
2022/02/18 04:37:55;;;;;;;10.52;2.05;;;;;;;;;;4937542;29;20126;-71
2022/02/18 04:40:21;;;;;;;11.50;2.47;;;;;;;;;;4937729;29;20055;-69
2022/02/18 04:42:48;;;;;;;9.38;2.33;;;;;;;;;;4937597;29;20515;-68
2022/02/18 04:45:15;;;;;;;11.63;2.53;;;;;;;;;;4937727;29;20099;-70
2022/02/18 04:47:42;;;;;;;12.13;3.22;;;;;;;;;;4937563;29;20052;-70
2022/02/18 04:50:16;;;;;;;16.00;3.03;;;;;;;;;;4938403;29;20047;-71
2022/02/18 04:52:43;;;;;;;14.68;2.33;;;;;;;;;;4923051;29;20086;-71
2022/02/18 04:55:09;;;;;;;14.25;2.30;;;;;;;;;;4937848;29;20047;-71
2022/02/18 04:57:36;;;;;;;13.00;2.78;;;;;;;;;;4937493;29;20562;-70
2022/02/18 05:00:04;;;;;;;13.07;2.65;;;;;;;;;;4937636;29;20060;-71
2022/02/18 05:02:31;;;;;;;14.00;3.42;;;;;;;;;;4937952;29;20115;-70
2022/02/18 05:04:59;;;;;;;11.02;2.58;;;;;;;;;;4937896;29;20044;-71
2022/02/18 05:07:25;;;;;;;13.00;2.67;;;;;;;;;;4936918;29;20130;-70
2022/02/18 05:09:52;;;;;;;15.15;4.45;;;;;;;;;;4937495;29;20337;-71
2022/02/18 05:12:18;;;;;;;12.05;2.47;;;;;;;;;;4937219;29;20083;-70
2022/02/18 05:14:45;;;;;;;18.35;2.70;;;;;;;;;;4937416;29;20098;-71
2022/02/18 05:17:12;;;;;;;16.42;2.65;;;;;;;;;;4937228;29;20106;-70
2022/02/18 05:19:38;;;;;;;12.73;2.55;;;;;;;;;;4937285;29;20313;-71
2022/02/18 05:22:05;;;;;;;14.00;2.70;;;;;;;;;;4937055;29;20496;-71
2022/02/18 05:24:31;;;;;;;11.07;2.45;;;;;;;;;;4936994;29;20122;-71
2022/02/18 05:26:58;;;;;;;16.80;2.65;;;;;;;;;;4936973;29;20107;-71
2022/02/18 05:29:25;;;;;;;15.55;2.50;;;;;;;;;;4936901;29;20110;-69
2022/02/18 05:31:51;;;;;;;10.40;3.10;;;;;;;;;;4937083;29;20499;-70
2022/02/18 05:34:18;;;;;;;19.45;3.55;;;;;;;;;;4936950;29;20051;-70
2022/02/18 05:36:44;;;;;;;13.55;3.22;;;;;;;;;;4936896;29;20110;-70
2022/02/18 05:39:12;;;;;;;16.05;2.67;;;;;;;;;;4937221;29;20111;-69
2022/02/18 05:41:43;;;;;;;13.90;2.43;;;;;;;;;;4937024;29;20062;-70
2022/02/18 05:44:10;;;;;;;15.40;3.03;;;;;;;;;;4936815;29;20048;-70
2022/02/18 05:46:36;;;;;;;12.23;2.55;;;;;;;;;;4936570;29;20489;-70
2022/02/18 05:49:03;;;;;;;11.23;2.45;;;;;;;;;;4935747;29;20059;-71
2022/02/18 05:51:30;;;;;;;13.02;2.65;;;;;;;;;;4936906;29;20114;-70
2022/02/18 05:53:56;;;;;;;12.43;2.70;;;;;;;;;;4936680;29;20099;-71
2022/02/18 05:56:23;;;;;;;11.25;2.60;;;;;;;;;;4936595;29;20087;-70
2022/02/18 05:58:50;;;;;;;14.00;3.17;;;;;;;;;;4932705;29;20189;-69
2022/02/18 06:01:20;;;;;;;17.95;2.85;;;;;;;;;;4919908;29;20056;-70
2022/02/18 06:03:48;;;;;;;10.45;2.45;;;;;;;;;;4917391;29;20471;-71
2022/02/18 06:06:15;;;;;;;20.92;2.53;;;;;;;;;;4917675;29;20048;-71
2022/02/18 06:08:42;;;;;;;13.50;2.30;;;;;;;;;;4940064;29;20498;-70
2022/02/18 06:11:09;;;;;;;14.07;2.50;;;;;;;;;;4923568;29;20052;-70
2022/02/18 06:13:36;;;;;;;15.00;2.97;;;;;;;;;;4919712;29;20103;-69
2022/02/18 06:16:03;;;;;;;14.05;2.40;;;;;;;;;;4930650;29;20052;-70
2022/02/18 06:18:29;;;;;;;11.93;2.60;;;;;;;;;;4927723;29;20056;-70
2022/02/18 06:20:56;;;;;;;18.00;3.35;;;;;;;;;;4924024;29;20051;-71
2022/02/18 06:23:22;;;;;;;14.65;2.55;;;;;;;;;;4932401;29;20051;-70
2022/02/18 06:25:49;;;;;;;11.27;2.05;;;;;;;;;;4926479;29;20095;-71
2022/02/18 06:28:15;;;;;;;13.75;3.50;;;;;;;;;;4929528;29;20055;-71
2022/02/18 06:30:43;;;;;;;14.98;2.88;;;;;;;;;;4933266;29;20052;-71
2022/02/18 06:33:10;;;;;;;13.80;2.25;;;;;;;;;;4935780;29;20566;-71
2022/02/18 06:35:39;;;;;;;9.82;2.33;;;;;;;;;;4936224;29;20134;-70
2022/02/18 06:38:07;;;;;;;13.93;2.60;;;;;;;;;;4936058;29;20051;-71
2022/02/18 06:40:34;;;;;;;10.63;2.13;;;;;;;;;;4930290;29;20151;-70
2022/02/18 06:43:00;;;;;;;9.88;2.42;;;;;;;;;;4927748;29;20059;-70
2022/02/18 06:45:27;;;;;;;9.20;2.60;;;;;;;;;;4919212;29;20052;-71
2022/02/18 06:47:54;;;;;;;12.13;2.53;;;;;;;;;;4917020;29;20056;-69
2022/02/18 06:50:21;;;;;;;15.40;2.63;;;;;;;;;;4923307;29;20051;-69
2022/02/18 06:52:48;;;;;;;9.77;2.45;;;;;;;;;;4935780;29;20451;-69
2022/02/18 06:55:15;;;;;;;10.50;2.47;;;;;;;;;;4935785;29;20103;-69
2022/02/18 06:57:44;;;;;;;19.63;3.35;;;;;;;;;;4935415;29;20051;-68
2022/02/18 07:00:13;;;;;;;16.13;3.00;;;;;;;;;;4932705;29;20333;-67
2022/02/18 07:02:41;;;;;;;18.75;3.58;;;;;;;;;;4933404;29;20122;-68
2022/02/18 07:05:12;;;;;;;10.95;3.25;;;;;;;;;;4933801;29;20154;-67
2022/02/18 07:07:40;;;;;;;11.70;2.53;;;;;;;;;;4933699;29;20055;-67
2022/02/18 07:10:08;;;;;;;11.90;2.80;;;;;;;;;;4933101;29;20051;-68
2022/02/18 07:12:35;;;;;;;19.95;3.35;;;;;;;;;;4932534;29;20055;-68
2022/02/18 07:15:03;;;;;;;15.85;2.95;;;;;;;;;;4933200;29;20056;-68
2022/02/18 07:17:30;;;;;;;12.40;2.80;;;;;;;;;;4933270;29;20055;-67
2022/02/18 07:19:57;;;;;;;15.70;2.88;;;;;;;;;;4932946;29;20103;-67
2022/02/18 07:22:24;;;;;;;10.95;2.30;;;;;;;;;;4933742;29;20052;-66
2022/02/18 07:24:51;;;;;;;14.45;2.38;;;;;;;;;;4939307;29;20418;-67
2022/02/18 07:27:18;;;;;;;10.90;2.88;;;;;;;;;;4932552;29;20055;-68
2022/02/18 07:29:45;;;;;;;11.05;2.47;;;;;;;;;;4933478;29;20546;-67
2022/02/18 07:32:11;;;;;;;12.07;2.90;;;;;;;;;;4932725;29;20483;-68
2022/02/18 07:34:38;;;;;;;16.08;3.47;;;;;;;;;;4932790;29;20055;-68
2022/02/18 07:37:05;;;;;;;13.05;2.85;;;;;;;;;;4933052;29;20107;-67
2022/02/18 07:39:31;;;;;;;10.98;2.17;;;;;;;;;;4936257;29;20079;-68
2022/02/18 07:41:58;;;;;;;14.98;2.45;;;;;;;;;;4944495;29;20817;-67
2022/02/18 07:44:25;;;;;;;20.33;2.88;;;;;;;;;;4943249;29;20616;-69
2022/02/18 07:46:51;;;;;;;11.25;2.40;;;;;;;;;;4942980;29;20080;-68
2022/02/18 07:49:40;;;;;;;10.68;2.85;;;;;;;;;;4942666;29;20083;-69
2022/02/18 07:52:07;;;;;;;12.23;2.60;;;;;;;;;;4944076;29;20142;-69
2022/02/18 07:54:35;;;;;;;12.90;3.00;;;;;;;;;;4945436;29;20097;-68
2022/02/18 07:57:02;;;;;;;12.20;2.90;;;;;;;;;;4945447;29;20127;-69
2022/02/18 07:59:28;;;;;;;14.02;2.50;;;;;;;;;;4947956;29;20035;-67
2022/02/18 08:01:55;;;;;;;13.93;2.05;;;;;;;;;;4948964;29;20048;-67
2022/02/18 08:04:22;;;;;;;10.25;2.10;;;;;;;;;;4949646;29;20083;-67
2022/02/18 08:06:48;;;;;;;16.98;2.80;;;;;;;;;;4950009;29;20051;-69
2022/02/18 08:09:15;;;;;;;8.55;2.50;;;;;;;;;;4949481;29;20047;-66
2022/02/18 08:11:41;;;;;;;10.88;2.22;;;;;;;;;;4948661;29;20103;-67
2022/02/18 08:14:08;;;;;;;9.73;2.22;;;;;;;;;;4937237;29;20110;-67
2022/02/18 08:16:35;;;;;;;21.23;2.60;;;;;;;;;;4936455;29;20142;-68
2022/02/18 08:19:01;;;;;;;6.32;1.92;;;;;;;;;;4936277;29;20063;-68
2022/02/18 08:21:28;;;;;;;7.82;2.40;;;;;;;;;;4936409;29;20060;-68
2022/02/18 08:23:55;;;;;;;8.68;2.28;;;;;;;;;;4936252;29;20111;-68
2022/02/18 08:26:22;;;;;;;7.53;2.33;;;;;;;;;;4936366;29;20136;-69
2022/02/18 08:28:49;;;;;;;9.23;2.30;;;;;;;;;;4924435;29;20060;-68
2022/02/18 08:31:17;;;;;;;12.82;2.42;;;;;;;;;;4936821;29;20488;-70
2022/02/18 08:33:44;;;;;;;7.90;1.80;;;;;;;;;;4934130;29;20064;-70
2022/02/18 08:36:11;;;;;;;8.65;1.55;;;;;;;;;;4934431;29;20051;-71
2022/02/18 08:38:38;;;;;;;8.23;2.00;;;;;;;;;;4934411;29;20051;-70
2022/02/18 08:41:05;;;;;;;7.30;1.92;;;;;;;;;;4934310;29;20470;-70
2022/02/18 08:43:32;;;;;;;5.22;1.50;;;;;;;;;;4934157;29;20055;-69
2022/02/18 08:45:58;;;;;;;6.18;1.90;;;;;;;;;;4933860;29;20051;-69
2022/02/18 08:48:25;;;;;;;6.25;1.63;;;;;;;;;;4933755;29;20055;-70
2022/02/18 08:50:53;;;;;;;7.10;1.60;;;;;;;;;;4932964;29;20138;-72
2022/02/18 08:53:19;;;;;;;6.10;1.50;;;;;;;;;;4935511;29;20095;-68
2022/02/18 08:55:46;;;;;;;5.68;1.73;;;;;;;;;;4935698;29;20487;-69
2022/02/18 08:58:13;;;;;;;5.82;1.40;;;;;;;;;;4935519;29;20123;-68
2022/02/18 09:00:39;;;;;;;7.20;1.77;;;;;;;;;;4936245;29;20056;-68
2022/02/18 09:03:06;;;;;;;8.38;1.23;;;;;;;;;;4936092;29;20067;-68
2022/02/18 09:05:33;;;;;;;5.43;1.38;;;;;;;;;;4936767;29;20502;-72
2022/02/18 09:08:00;;;;;;;5.55;1.33;;;;;;;;;;4936677;29;20483;-67
2022/02/18 09:10:27;;;;;;;7.93;1.20;;;;;;;;;;4936076;29;20043;-68
2022/02/18 09:12:54;;;;;;;4.38;1.40;;;;;;;;;;4935894;29;20081;-68
2022/02/18 09:15:20;;;;;;;3.60;1.83;;;;;;;;;;4936202;29;20067;-67
2022/02/18 09:17:52;;;;;;;5.55;1.00;;;;;;;;;;4934203;29;20060;-68
2022/02/18 09:20:18;;;;;;;5.45;1.20;;;;;;;;;;4932877;29;20059;-68
2022/02/18 09:22:45;;;;;;;4.10;1.08;;;;;;;;;;4934380;29;20048;-67
2022/02/18 09:25:12;;;;;;;3.20;1.10;;;;;;;;;;4935472;29;20051;-69
2022/02/18 09:27:39;;;;;;;4.15;0.90;;;;;;;;;;4935123;29;20511;-67
2022/02/18 09:30:10;;;;;;;3.75;1.25;;;;;;;;;;4935662;29;20177;-70
2022/02/18 09:32:37;;;;;;;4.13;1.17;;;;;;;;;;4934890;29;20062;-69
2022/02/18 09:35:09;;;;;;;5.38;0.93;;;;;;;;;;4934810;29;20134;-67
2022/02/18 09:37:41;;;;;;;4.82;0.93;;;;;;;;;;4933541;29;20380;-73
2022/02/18 09:40:08;;;;;;;5.90;1.00;;;;;;;;;;4935367;29;20055;-70
2022/02/18 09:42:37;;;;;;;3.97;0.98;;;;;;;;;;4935045;29;20114;-72
2022/02/18 09:45:04;;;;;;;2.75;1.00;;;;;;;;;;4920335;28;20062;-69
2022/02/18 09:47:32;;;;;;;4.43;0.90;;;;;;;;;;4956127;28;20099;-70
2022/02/18 09:50:00;;;;;;;3.83;1.15;;;;;;;;;;4950590;28;20048;-72
2022/02/18 09:52:28;;;;;;;6.43;1.20;;;;;;;;;;4950926;29;20055;-66
2022/02/18 09:54:55;;;;;;;2.03;0.70;;;;;;;;;;4954641;28;20054;-69
2022/02/18 09:57:21;;;;;;;2.65;0.95;;;;;;;;;;4954031;28;20083;-71
2022/02/18 09:59:49;;;;;;;4.15;0.88;;;;;;;;;;4953569;28;20214;-69
2022/02/18 10:02:16;;;;;;;3.13;0.98;;;;;;;;;;4953442;28;20093;-69
2022/02/18 10:04:43;;;;;;;3.90;0.73;;;;;;;;;;4951602;29;20102;-70
2022/02/18 10:07:10;;;;;;;3.10;0.77;;;;;;;;;;4953839;28;20106;-70
2022/02/18 10:09:44;;;;;;;4.65;0.60;;;;;;;;;;4952546;28;20059;-69
2022/02/18 10:12:13;;;;;;;4.32;0.75;;;;;;;;;;4953529;29;20051;-70
2022/02/18 10:14:57;;;;;;;3.60;1.00;;;;;;;;;;4950237;29;20396;-67
2022/02/18 10:17:36;;;;;;;3.03;1.10;;;;;;;;;;4953812;29;20056;-69
2022/02/18 10:20:12;;;;;;;4.03;1.85;;;;;;;;;;4952489;28;20098;-69
2022/02/18 10:22:39;;;;;;;3.67;1.00;;;;;;;;;;4952867;28;20055;-70
2022/02/18 10:25:10;;;;;;;3.92;1.40;;;;;;;;;;4947224;29;20051;-69
2022/02/18 10:27:44;;;;;;;3.35;0.68;;;;;;;;;;4952729;29;20051;-68
2022/02/18 10:30:25;;;;;;;2.08;0.80;;;;;;;;;;4950629;28;20055;-71
2022/02/18 10:32:53;;;;;;;4.05;1.33;;;;;;;;;;4952111;29;20462;-69
2022/02/18 10:35:29;;;;;;;3.75;1.42;;;;;;;;;;4952547;28;20047;-68
2022/02/18 10:37:55;;;;;;;3.88;0.70;;;;;;;;;;4951885;28;20062;-70
2022/02/18 10:40:22;;;;;;;5.43;0.80;;;;;;;;;;4947563;29;20161;-69
2022/02/18 10:42:52;;;;;;;3.88;0.73;;;;;;;;;;4953078;29;20059;-67
2022/02/18 10:45:20;;;;;;;2.83;0.73;;;;;;;;;;4951263;29;20168;-70
2022/02/18 10:47:51;;;;;;;4.28;1.38;;;;;;;;;;4953203;28;21219;-66
2022/02/18 10:50:22;;;;;;;2.42;0.90;;;;;;;;;;4967176;28;20463;-75
2022/02/18 10:53:10;;;;;;;3.83;0.77;;;;;;;;;;4951008;28;20055;-72
2022/02/18 10:55:50;;;;;;;3.08;1.08;;;;;;;;;;4952391;28;20088;-70
2022/02/18 10:58:34;;;;;;;4.25;0.80;;;;;;;;;;4952403;28;20113;-69
2022/02/18 11:01:10;;;;;;;3.58;1.10;;;;;;;;;;4952840;28;20051;-70
2022/02/18 11:03:41;;;;;;;3.75;1.10;;;;;;;;;;4951941;29;20047;-74
2022/02/18 11:06:22;;;;;;;5.47;1.17;;;;;;;;;;4952237;29;20118;-72
2022/02/18 11:09:05;;;;;;;3.83;1.20;;;;;;;;;;4949849;29;20055;-73
2022/02/18 11:11:35;;;;;;;5.20;1.15;;;;;;;;;;4967123;28;20503;-72
2022/02/18 11:14:03;;;;;;;4.38;0.75;;;;;;;;;;4952654;28;20059;-70
2022/02/18 11:16:34;;;;;;;4.70;0.60;;;;;;;;;;4953227;28;20113;-73
2022/02/18 11:19:01;;;;;;;1.65;0.77;;;;;;;;;;4920865;28;20055;-72
2022/02/18 11:21:28;;;;;;;2.90;0.55;;;;;;;;;;4951683;28;20051;-69
2022/02/18 11:23:56;;;;;;;2.85;0.52;;;;;;;;;;4952011;28;20042;-73
2022/02/18 11:26:25;;;;;;;2.47;0.60;;;;;;;;;;4952259;28;20055;-69
2022/02/18 11:28:53;;;;;;;2.45;0.65;;;;;;;;;;4951000;29;20505;-70
2022/02/18 11:31:31;;;;;;;4.35;1.30;;;;;;;;;;4955022;28;20047;-69
2022/02/18 11:34:07;;;;;;;1.95;0.60;;;;;;;;;;4935829;29;20059;-70
2022/02/18 11:36:58;;;;;;;2.05;0.50;;;;;;;;;;4951798;29;20043;-69
2022/02/18 11:40:11;;;;;;;4.38;0.52;;;;;;;;;;4952262;28;20055;-66
2022/02/18 11:42:57;;;;;;;0.65;0.38;;;;;;;;;;4952062;28;20304;-71
2022/02/18 11:45:39;;;;;;;4.38;0.70;;;;;;;;;;4950002;28;20479;-71
2022/02/18 11:48:05;;;;;;;4.85;1.10;;;;;;;;;;4951927;28;20110;-69
2022/02/18 11:50:32;;;;;;;3.25;0.82;;;;;;;;;;4952070;28;20062;-69
2022/02/18 11:53:00;;;;;;;2.72;0.60;;;;;;;;;;4951965;28;20506;-69
2022/02/18 11:55:40;;;;;;;3.30;0.68;;;;;;;;;;4951157;28;20426;-69
2022/02/18 11:58:12;;;;;;;1.27;0.60;;;;;;;;;;4933313;29;20065;-72
2022/02/18 12:00:48;;;;;;;3.47;1.00;;;;;;;;;;4946262;28;20051;-70
2022/02/18 12:03:19;;;;;;;1.40;0.73;;;;;;;;;;4950814;28;20070;-70
2022/02/18 12:06:04;;;;;;;3.13;0.60;;;;;;;;;;4950711;29;20051;-69
2022/02/18 12:08:33;;;;;;;4.90;0.50;;;;;;;;;;4952087;28;20059;-69
2022/02/18 12:11:15;;;;;;;1.50;0.75;;;;;;;;;;4951834;28;20051;-73
2022/02/18 12:13:59;;;;;;;1.27;0.60;;;;;;;;;;4940795;29;20522;-69
2022/02/18 12:16:27;;;;;;;2.15;0.60;;;;;;;;;;4940807;28;20071;-71
2022/02/18 12:19:08;;;;;;;1.38;0.70;;;;;;;;;;4949814;28;20051;-72
2022/02/18 12:21:57;;;;;;;2.38;0.88;;;;;;;;;;4924420;28;20050;-70
2022/02/18 12:24:33;;;;;;;2.42;0.57;;;;;;;;;;4948717;29;20047;-68
2022/02/18 12:27:24;;;;;;;2.20;0.80;;;;;;;;;;4950450;29;20075;-68
2022/02/18 12:29:56;;;;;;;2.10;0.50;;;;;;;;;;4951920;28;20043;-69
2022/02/18 12:32:23;;;;;;;3.67;1.33;;;;;;;;;;4951299;29;20426;-68
2022/02/18 12:35:06;;;;;;;3.05;0.60;;;;;;;;;;4951812;29;20458;-67
2022/02/18 12:37:33;;;;;;;2.67;0.55;;;;;;;;;;4950121;29;20506;-66
2022/02/18 12:40:04;;;;;;;2.45;0.65;;;;;;;;;;4951364;28;20058;-67
2022/02/18 12:42:31;;;;;;;1.45;0.63;;;;;;;;;;4953333;28;20051;-68
2022/02/18 12:45:00;;;;;;;2.28;0.65;;;;;;;;;;4952720;29;20098;-66
2022/02/18 12:47:32;;;;;;;2.67;0.57;;;;;;;;;;4947878;29;20499;-65
2022/02/18 12:50:03;;;;;;;2.93;0.47;;;;;;;;;;4950688;28;20047;-66
2022/02/18 12:52:30;;;;;;;2.72;0.55;;;;;;;;;;4951151;28;20303;-67
2022/02/18 12:55:05;;;;;;;1.58;0.40;;;;;;;;;;4951018;28;20094;-66
2022/02/18 12:57:35;;;;;;;1.92;0.52;;;;;;;;;;4952411;28;20043;-67
2022/02/18 13:00:07;;;;;;;3.15;0.68;;;;;;;;;;4954139;28;20055;-69
2022/02/18 13:02:48;;;;;;;4.25;0.63;;;;;;;;;;4954412;29;20051;-67
2022/02/18 13:05:28;;;;;;;0.77;0.47;;;;;;;;;;4955058;28;20437;-68
2022/02/18 13:07:58;;;;;;;5.10;0.82;;;;;;;;;;4954527;29;20051;-67
2022/02/18 13:10:33;;;;;;;1.45;0.40;;;;;;;;;;4954748;28;20051;-69
2022/02/18 13:13:07;;;;;;;1.15;0.57;;;;;;;;;;4954458;29;20506;-67
2022/02/18 13:15:34;;;;;;;4.15;0.80;;;;;;;;;;4953553;29;20086;-65
2022/02/18 13:18:02;;;;;;;2.33;0.50;;;;;;;;;;4955731;28;20486;-66
2022/02/18 13:20:40;;;;;;;4.70;0.45;;;;;;;;;;4954490;28;20055;-66
2022/02/18 13:23:08;;;;;;;3.67;0.70;;;;;;;;;;4928269;28;20106;-67
2022/02/18 13:25:48;;;;;;;2.60;0.57;;;;;;;;;;4953396;28;20110;-68
2022/02/18 13:28:20;;;;;;;1.73;0.55;;;;;;;;;;4952750;29;20051;-68
2022/02/18 13:30:50;;;;;;;1.00;0.40;;;;;;;;;;4953067;28;20062;-67
2022/02/18 13:33:26;;;;;;;2.17;0.50;;;;;;;;;;4954544;29;20298;-68
2022/02/18 13:36:07;;;;;;;2.10;0.70;;;;;;;;;;4949625;29;20043;-68
2022/02/18 13:38:36;;;;;;;2.53;0.63;;;;;;;;;;4951559;29;20059;-68
2022/02/18 13:41:06;;;;;;;1.52;0.40;;;;;;;;;;4952405;28;20514;-68
2022/02/18 13:43:35;;;;;;;3.42;0.60;;;;;;;;;;4949068;29;20422;-68
2022/02/18 13:46:01;;;;;;;1.45;0.35;;;;;;;;;;4951199;29;20102;-68
2022/02/18 13:48:34;;;;;;;3.72;1.15;;;;;;;;;;4951746;28;20110;-68
2022/02/18 13:51:03;;;;;;;1.63;0.70;;;;;;;;;;4949510;28;20174;-68
2022/02/18 13:53:32;;;;;;;3.33;1.40;;;;;;;;;;4950407;28;20066;-68
2022/02/18 13:56:01;;;;;;;2.58;0.77;;;;;;;;;;4947700;28;20047;-70
2022/02/18 13:58:30;;;;;;;4.57;0.55;;;;;;;;;;4952471;28;20094;-70
2022/02/18 14:00:57;;;;;;;2.50;0.60;;;;;;;;;;4948834;28;20047;-69
2022/02/18 14:03:27;;;;;;;0.60;0.30;;;;;;;;;;4950631;29;20054;-68
2022/02/18 14:06:19;;;;;;;1.50;0.65;;;;;;;;;;4951788;28;20166;-68
2022/02/18 14:08:56;;;;;;;1.98;0.50;;;;;;;;;;4936576;28;20106;-69
2022/02/18 14:11:23;;;;;;;1.88;0.60;;;;;;;;;;4950531;29;20051;-69
2022/02/18 14:13:52;;;;;;;6.80;0.82;;;;;;;;;;4951567;29;20051;-67
2022/02/18 14:16:28;;;;;;;1.02;0.30;;;;;;;;;;4950315;28;20043;-67
2022/02/18 14:19:15;;;;;;;1.48;0.47;;;;;;;;;;4951741;28;20059;-68
2022/02/18 14:21:45;;;;;;;2.45;0.40;;;;;;;;;;4927567;29;20447;-70
2022/02/18 14:24:12;;;;;;;2.03;1.00;;;;;;;;;;4951606;28;20147;-70
2022/02/18 14:26:45;;;;;;;5.10;0.80;;;;;;;;;;4950408;29;20047;-70
2022/02/18 14:29:13;;;;;;;2.47;0.65;;;;;;;;;;4949810;28;20482;-69
2022/02/18 14:31:40;;;;;;;9.23;0.85;;;;;;;;;;4951600;28;20047;-69
2022/02/18 14:34:13;;;;;;;1.80;0.60;;;;;;;;;;4950101;28;20114;-69
2022/02/18 14:36:42;;;;;;;3.92;0.50;;;;;;;;;;4951353;28;20055;-67
2022/02/18 14:39:13;;;;;;;1.67;0.52;;;;;;;;;;4951426;28;20054;-68
2022/02/18 14:42:17;;;;;;;3.78;1.25;;;;;;;;;;4951171;28;20125;-67
2022/02/18 14:44:47;;;;;;;2.35;0.45;;;;;;;;;;4880965;29;20070;-69
2022/02/18 14:47:14;;;;;;;19.08;1.65;;;;;;;;;;4938433;29;20052;-67